createdAt,value
2022-10-16T00:00:30.179Z,13.50
2022-10-16T00:04:38.748Z,13.40
2022-10-16T00:08:47.466Z,13.40
2022-10-16T00:12:56.018Z,13.30
2022-10-16T00:17:04.681Z,13.30
2022-10-16T00:21:16.530Z,13.30
2022-10-16T00:25:25.074Z,13.30
2022-10-16T00:29:33.705Z,13.30
2022-10-16T00:33:43.195Z,13.30
2022-10-16T00:37:51.754Z,13.30
2022-10-16T00:42:00.314Z,13.30
2022-10-16T00:46:17.261Z,13.30
2022-10-16T00:50:34.986Z,13.30
2022-10-16T00:54:43.702Z,13.30
2022-10-16T00:58:52.496Z,13.30
2022-10-16T01:03:03.391Z,13.30
2022-10-16T01:07:15.029Z,13.30
2022-10-16T01:11:47.163Z,13.30
2022-10-16T01:16:01.838Z,13.30
2022-10-16T01:20:13.488Z,13.20
2022-10-16T01:24:31.153Z,13.20
2022-10-16T01:29:00.156Z,13.10
2022-10-16T01:33:20.373Z,13.10
2022-10-16T01:37:38.154Z,13.20
2022-10-16T01:41:52.604Z,13.20
2022-10-16T01:46:02.607Z,13.20
2022-10-16T01:50:11.425Z,13.20
2022-10-16T01:54:22.204Z,13.20
2022-10-16T01:58:33.575Z,13.20
2022-10-16T02:02:45.146Z,13.20
2022-10-16T02:06:54.847Z,13.20
2022-10-16T02:11:05.148Z,13.10
2022-10-16T02:15:13.969Z,13.00
2022-10-16T02:19:23.668Z,13.00
2022-10-16T02:23:55.315Z,13.00
2022-10-16T02:28:09.913Z,13.00
2022-10-16T02:32:21.565Z,12.90
2022-10-16T02:36:50.220Z,12.90
2022-10-16T02:40:59.173Z,12.90
2022-10-16T02:45:09.980Z,12.90
2022-10-16T02:49:19.148Z,12.90
2022-10-16T02:53:27.706Z,12.90
2022-10-16T02:57:38.119Z,12.90
2022-10-16T03:01:46.865Z,12.80
2022-10-16T03:05:55.686Z,12.80
2022-10-16T03:10:04.535Z,12.90
2022-10-16T03:14:13.099Z,12.90
2022-10-16T03:18:21.732Z,12.90
2022-10-16T03:22:30.471Z,12.90
2022-10-16T03:26:39.058Z,12.90
2022-10-16T03:30:47.616Z,12.90
2022-10-16T03:34:57.369Z,12.80
2022-10-16T03:39:07.000Z,12.80
2022-10-16T03:47:24.954Z,12.80
2022-10-16T03:51:34.238Z,12.80
2022-10-16T03:55:46.378Z,12.90
2022-10-16T03:59:54.954Z,12.90
2022-10-16T04:04:03.525Z,12.90
2022-10-16T04:08:12.168Z,12.90
2022-10-16T04:12:20.738Z,12.90
2022-10-16T04:16:29.364Z,12.90
2022-10-16T04:20:43.836Z,12.90
2022-10-16T04:24:52.390Z,12.90
2022-10-16T04:29:01.060Z,12.90
2022-10-16T04:33:11.401Z,12.90
2022-10-16T04:37:20.027Z,12.90
2022-10-16T04:41:28.600Z,12.90
2022-10-16T04:45:37.146Z,12.90
2022-10-16T04:49:45.725Z,12.80
2022-10-16T04:53:54.359Z,12.90
2022-10-16T04:58:02.998Z,12.90
2022-10-16T05:02:11.573Z,12.90
2022-10-16T05:06:39.752Z,12.90
2022-10-16T05:10:48.335Z,12.80
2022-10-16T05:14:58.542Z,12.90
2022-10-16T05:23:29.464Z,12.80
2022-10-16T05:27:38.041Z,12.80
2022-10-16T05:31:46.672Z,12.80
2022-10-16T05:35:55.267Z,12.90
2022-10-16T05:40:05.976Z,12.90
2022-10-16T05:44:14.602Z,12.80
2022-10-16T05:48:23.446Z,12.80
2022-10-16T05:52:32.025Z,12.80
2022-10-16T05:56:40.599Z,12.80
2022-10-16T06:00:57.575Z,12.80
2022-10-16T06:05:25.409Z,12.70
2022-10-16T06:09:33.980Z,12.70
2022-10-16T06:13:43.525Z,12.70
2022-10-16T06:17:52.101Z,12.70
2022-10-16T06:22:01.296Z,12.70
2022-10-16T06:26:12.299Z,12.70
2022-10-16T06:30:40.170Z,12.70
2022-10-16T06:34:48.741Z,12.70
2022-10-16T06:38:57.458Z,12.80
2022-10-16T06:43:06.039Z,12.80
2022-10-16T06:47:14.589Z,12.80
2022-10-16T06:51:25.123Z,12.80
2022-10-16T06:55:33.697Z,12.80
2022-10-16T06:59:45.180Z,12.80
2022-10-16T07:03:52.820Z,12.80
2022-10-16T07:08:01.380Z,12.80
2022-10-16T07:12:09.939Z,12.80
2022-10-16T07:16:23.810Z,12.80
2022-10-16T07:20:32.362Z,12.90
2022-10-16T07:24:40.915Z,12.90
2022-10-16T07:28:49.575Z,12.90
2022-10-16T07:32:58.135Z,13.00
2022-10-16T07:37:06.703Z,13.10
2022-10-16T07:41:18.564Z,13.10
2022-10-16T07:45:27.136Z,13.20
2022-10-16T07:49:35.766Z,13.30
2022-10-16T07:53:44.336Z,13.40
2022-10-16T07:57:52.884Z,13.40
2022-10-16T08:02:01.867Z,13.50
2022-10-16T08:06:10.417Z,13.60
2022-10-16T08:10:21.443Z,13.70
2022-10-16T08:14:30.190Z,13.80
2022-10-16T08:18:40.612Z,13.90
2022-10-16T08:22:49.179Z,14.00
2022-10-16T08:26:57.754Z,14.10
2022-10-16T08:31:11.696Z,14.30
2022-10-16T08:35:20.259Z,14.40
2022-10-16T08:39:29.039Z,14.40
2022-10-16T08:43:58.763Z,14.60
2022-10-16T08:48:12.875Z,14.70
2022-10-16T08:52:33.870Z,14.80
2022-10-16T08:56:42.439Z,14.90
2022-10-16T09:00:54.112Z,15.00
2022-10-16T09:05:06.737Z,15.20
2022-10-16T09:09:19.448Z,15.30
2022-10-16T09:13:37.110Z,15.40
2022-10-16T09:18:10.066Z,15.40
2022-10-16T09:22:20.143Z,15.50
2022-10-16T09:26:29.054Z,15.50
2022-10-16T09:30:41.298Z,15.60
2022-10-16T09:34:52.822Z,15.60
2022-10-16T09:39:07.940Z,15.70
2022-10-16T09:43:25.562Z,15.70
2022-10-16T09:47:35.949Z,15.80
2022-10-16T09:51:44.518Z,16.10
2022-10-16T09:55:55.238Z,16.30
2022-10-16T10:00:07.711Z,16.50
2022-10-16T10:04:16.915Z,16.60
2022-10-16T10:08:26.012Z,16.70
2022-10-16T10:12:37.494Z,16.70
2022-10-16T10:16:46.125Z,16.80
2022-10-16T10:25:18.987Z,17.00
2022-10-16T10:29:58.044Z,17.10
2022-10-16T10:34:30.327Z,17.30
2022-10-16T10:38:53.854Z,17.40
2022-10-16T10:43:08.888Z,17.50
2022-10-16T10:47:32.883Z,17.60
2022-10-16T10:51:50.562Z,17.70
2022-10-16T10:56:29.209Z,17.90
2022-10-16T11:01:01.287Z,18.00
2022-10-16T11:05:31.566Z,18.20
2022-10-16T11:09:43.104Z,18.10
2022-10-16T11:14:15.397Z,18.00
2022-10-16T11:18:26.767Z,17.80
2022-10-16T11:22:47.444Z,17.70
2022-10-16T11:26:58.067Z,17.80
2022-10-16T11:31:37.168Z,17.90
2022-10-16T11:35:51.387Z,18.00
2022-10-16T11:40:03.295Z,17.90
2022-10-16T11:44:45.351Z,17.80
2022-10-16T11:49:17.650Z,17.70
2022-10-16T11:54:03.888Z,17.60
2022-10-16T11:58:23.963Z,17.40
2022-10-16T12:02:38.186Z,17.30
2022-10-16T12:07:10.880Z,17.30
2022-10-16T12:11:31.809Z,17.30
2022-10-16T12:15:58.329Z,17.30
2022-10-16T12:20:16.733Z,17.40
2022-10-16T12:24:42.337Z,17.60
2022-10-16T12:28:52.763Z,17.70
2022-10-16T12:33:23.867Z,17.60
2022-10-16T12:37:35.631Z,17.70
2022-10-16T12:41:44.175Z,17.80
2022-10-16T12:46:17.096Z,17.80
2022-10-16T12:50:28.723Z,17.80
2022-10-16T12:54:39.696Z,17.80
2022-10-16T12:59:06.290Z,17.70
2022-10-16T13:03:34.720Z,17.80
2022-10-16T13:07:55.535Z,17.90
2022-10-16T13:12:27.551Z,18.10
2022-10-16T13:17:06.169Z,18.10
2022-10-16T13:21:41.397Z,18.30
2022-10-16T13:26:05.306Z,18.40
2022-10-16T13:30:32.401Z,18.40
2022-10-16T13:34:49.652Z,18.20
2022-10-16T13:39:10.488Z,18.00
2022-10-16T13:43:21.536Z,17.90
2022-10-16T13:47:31.788Z,17.80
2022-10-16T13:51:40.547Z,17.80
2022-10-16T13:55:49.124Z,17.80
2022-10-16T13:59:57.831Z,17.90
2022-10-16T14:04:11.978Z,18.10
2022-10-16T14:08:21.297Z,18.00
2022-10-16T14:12:30.512Z,17.90
2022-10-16T14:16:42.450Z,17.90
2022-10-16T14:20:52.679Z,17.80
2022-10-16T14:25:01.423Z,17.70
2022-10-16T14:29:31.546Z,17.60
2022-10-16T14:33:40.243Z,17.60
2022-10-16T14:37:50.305Z,17.70
2022-10-16T14:42:00.398Z,17.60
2022-10-16T14:50:30.840Z,17.60
2022-10-16T14:54:58.817Z,17.60
2022-10-16T14:59:07.513Z,17.50
2022-10-16T15:03:16.588Z,17.50
2022-10-16T15:07:25.775Z,17.50
2022-10-16T15:11:35.381Z,17.50
2022-10-16T15:15:50.153Z,17.40
2022-10-16T15:20:00.133Z,17.30
2022-10-16T15:24:11.608Z,17.30
2022-10-16T15:28:22.837Z,17.20
2022-10-16T15:32:31.506Z,17.20
2022-10-16T15:36:40.799Z,17.20
2022-10-16T15:40:50.514Z,17.10
2022-10-16T15:44:59.096Z,17.10
2022-10-16T15:49:07.911Z,17.10
2022-10-16T15:53:16.875Z,17.00
2022-10-16T15:57:25.660Z,17.00
2022-10-16T16:01:37.784Z,16.90
2022-10-16T16:05:46.863Z,16.90
2022-10-16T16:09:55.674Z,16.80
2022-10-16T16:14:04.179Z,16.70
2022-10-16T16:18:12.916Z,16.60
2022-10-16T16:22:21.463Z,16.60
2022-10-16T16:26:36.182Z,16.50
2022-10-16T16:31:04.462Z,16.50
2022-10-16T16:35:13.115Z,16.40
2022-10-16T16:39:21.801Z,16.40
2022-10-16T16:43:30.475Z,16.30
2022-10-16T16:47:39.721Z,16.30
2022-10-16T16:51:48.345Z,16.20
2022-10-16T16:55:59.887Z,16.20
2022-10-16T17:00:08.036Z,16.10
2022-10-16T17:04:16.674Z,16.00
2022-10-16T17:08:25.317Z,16.00
2022-10-16T17:12:33.935Z,15.90
2022-10-16T17:16:46.001Z,15.90
2022-10-16T17:20:54.808Z,15.80
2022-10-16T17:25:04.612Z,15.70
2022-10-16T17:29:34.039Z,15.70
2022-10-16T17:34:19.075Z,15.70
2022-10-16T17:38:28.415Z,15.70
2022-10-16T17:42:49.776Z,15.60
2022-10-16T17:51:49.080Z,15.60
2022-10-16T17:56:20.051Z,15.60
2022-10-16T18:00:39.488Z,15.60
2022-10-16T18:10:09.973Z,15.60
2022-10-16T18:14:08.932Z,15.40
2022-10-16T18:19:08.283Z,15.40
2022-10-16T18:23:15.069Z,15.30
2022-10-16T18:27:50.798Z,15.30
2022-10-16T18:32:17.075Z,15.30
2022-10-16T18:41:13.551Z,15.20
2022-10-16T18:45:25.457Z,15.30
2022-10-16T18:49:42.978Z,15.30
2022-10-16T18:53:59.509Z,15.30
2022-10-16T18:58:08.545Z,15.30
2022-10-16T19:02:24.893Z,15.30
2022-10-16T19:06:36.673Z,15.30
2022-10-16T19:10:56.792Z,15.30
2022-10-16T19:15:16.136Z,15.40
2022-10-16T19:19:32.149Z,15.40
2022-10-16T19:23:47.394Z,15.30
2022-10-16T19:27:57.998Z,15.40
2022-10-16T19:32:21.801Z,15.40
2022-10-16T19:36:52.835Z,15.40
2022-10-16T19:41:45.803Z,15.40
2022-10-16T19:50:31.155Z,15.30
2022-10-16T19:59:31.006Z,15.30
2022-10-16T20:04:08.353Z,15.30
2022-10-16T20:08:52.437Z,15.30
2022-10-16T20:13:09.974Z,15.30
2022-10-16T20:17:18.743Z,15.30
2022-10-16T20:21:46.827Z,15.30
2022-10-16T20:26:00.520Z,15.20
2022-10-16T20:30:21.966Z,15.20
2022-10-16T20:34:51.183Z,15.20
2022-10-16T20:39:53.708Z,15.20
2022-10-16T20:43:35.035Z,15.20
2022-10-16T20:47:58.020Z,15.20
2022-10-16T20:52:07.877Z,15.10
2022-10-16T20:56:35.870Z,15.10
2022-10-16T21:00:59.134Z,15.10
2022-10-16T21:09:58.988Z,15.00
2022-10-16T21:14:15.395Z,15.00
2022-10-16T21:18:32.571Z,15.00
2022-10-16T21:27:44.561Z,15.00
2022-10-16T21:36:40.025Z,14.90
2022-10-16T21:45:28.106Z,14.90
2022-10-16T21:49:37.183Z,14.90
2022-10-16T21:53:50.670Z,14.80
2022-10-16T21:57:59.932Z,14.70
2022-10-16T22:02:13.616Z,14.70
2022-10-16T22:06:29.149Z,14.70
2022-10-16T22:10:42.303Z,14.70
2022-10-16T22:14:52.673Z,14.60
2022-10-16T22:19:09.282Z,14.60
2022-10-16T22:23:36.246Z,14.60
2022-10-16T22:27:46.918Z,14.50
2022-10-16T22:32:02.696Z,14.50
2022-10-16T22:36:17.533Z,14.50
2022-10-16T22:40:33.329Z,14.50
2022-10-16T22:44:48.812Z,14.50
2022-10-16T22:49:02.588Z,14.60
2022-10-16T22:53:15.191Z,14.50
2022-10-16T22:57:33.155Z,14.60
2022-10-16T23:01:43.570Z,14.60
2022-10-16T23:05:56.264Z,14.60
2022-10-16T23:10:27.554Z,14.70
2022-10-16T23:14:39.195Z,14.70
2022-10-16T23:18:56.070Z,14.70
2022-10-16T23:23:09.536Z,14.70
2022-10-16T23:27:26.378Z,14.70
2022-10-16T23:31:46.640Z,14.70
2022-10-16T23:36:11.326Z,14.80
2022-10-16T23:40:24.723Z,14.80
2022-10-16T23:45:01.924Z,14.80
2022-10-16T23:49:17.722Z,14.80
2022-10-16T23:53:22.519Z,14.80
2022-10-16T23:57:37.659Z,14.70
